Time,TemperatureF,DewpointF,PressureIn,WindDirection,WindDirectionDegrees,WindSpeedMPH,WindSpeedGustMPH,Humidity,HourlyPrecipIn,Conditions,Clouds,dailyrainin,SoftwareType,DateUTC
2013-06-01 00:02:00,81.0,72.0,29.67,SSW,210,8.0,10.0,73,0.00,,,0.00,,2013-06-01 05:02:00,
2013-06-01 00:12:00,81.0,72.0,29.67,SSW,210,8.0,10.0,73,0.00,,,0.00,,2013-06-01 05:12:00,
2013-06-01 00:22:00,81.0,71.0,29.67,SE,127,11.0,12.0,72,0.00,,,0.00,,2013-06-01 05:22:00,
2013-06-01 00:32:00,81.0,72.0,29.67,SSE,160,7.0,11.0,73,0.00,,,0.00,,2013-06-01 05:32:00,
2013-06-01 00:42:00,81.0,72.0,29.67,South,174,6.0,7.0,73,0.00,,,0.00,,2013-06-01 05:42:00,
2013-06-01 00:52:00,81.0,72.0,29.67,South,174,6.0,7.0,73,0.00,,,0.00,,2013-06-01 05:52:00,
2013-06-01 01:01:00,80.0,71.0,29.67,SSW,197,8.0,8.0,75,0.00,,,0.00,,2013-06-01 06:01:00,
2013-06-01 01:12:00,80.0,71.0,29.67,South,184,9.0,9.0,75,0.00,,,0.00,,2013-06-01 06:12:00,
2013-06-01 01:22:00,80.0,71.0,29.67,South,184,9.0,9.0,75,0.00,,,0.00,,2013-06-01 06:22:00,
2013-06-01 01:32:00,80.0,71.0,29.67,SSE,167,8.0,9.0,75,0.00,,,0.00,,2013-06-01 06:32:00,
2013-06-01 01:42:00,80.0,72.0,29.67,SSW,193,8.0,9.0,76,0.00,,,0.00,,2013-06-01 06:42:00,
2013-06-01 01:52:00,80.0,72.0,29.67,SSW,193,8.0,9.0,76,0.00,,,0.00,,2013-06-01 06:52:00,
2013-06-01 02:01:00,80.0,72.0,29.69,South,179,6.0,6.0,77,0.00,,,0.00,,2013-06-01 07:01:00,
2013-06-01 02:11:00,80.0,72.0,29.69,South,179,6.0,6.0,77,0.00,,,0.00,,2013-06-01 07:11:00,
2013-06-01 02:21:00,79.0,72.0,29.70,SE,139,5.0,5.0,78,0.00,,,0.00,,2013-06-01 07:21:00,
2013-06-01 02:31:00,79.0,72.0,29.70,SW,214,2.0,6.0,79,0.00,,,0.00,,2013-06-01 07:31:00,
2013-06-01 02:42:00,78.0,71.0,29.70,South,187,4.0,4.0,80,0.00,,,0.00,,2013-06-01 07:42:00,
2013-06-01 02:52:00,78.0,71.0,29.70,South,187,4.0,4.0,80,0.00,,,0.00,,2013-06-01 07:52:00,
2013-06-01 03:02:00,77.0,71.0,29.70,SW,231,4.0,5.0,82,0.00,,,0.00,,2013-06-01 08:02:00,
2013-06-01 03:11:00,77.0,71.0,29.70,SW,215,3.0,3.0,83,0.00,,,0.00,,2013-06-01 08:11:00,
2013-06-01 03:21:00,77.0,71.0,29.70,SW,215,3.0,3.0,83,0.00,,,0.00,,2013-06-01 08:21:00,
2013-06-01 03:32:00,77.0,72.0,29.70,SSW,207,5.0,6.0,84,0.00,,,0.00,,2013-06-01 08:32:00,
2013-06-01 03:42:00,77.0,72.0,29.70,SSW,193,5.0,5.0,85,0.00,,,0.00,,2013-06-01 08:42:00,
2013-06-01 03:52:00,77.0,72.0,29.70,SSW,193,5.0,5.0,85,0.00,,,0.00,,2013-06-01 08:52:00,
2013-06-01 04:01:00,76.0,72.0,29.69,South,172,6.0,9.0,86,0.00,,,0.00,,2013-06-01 09:01:00,
2013-06-01 04:12:00,76.0,72.0,29.69,South,172,6.0,9.0,86,0.00,,,0.00,,2013-06-01 09:12:00,
2013-06-01 04:21:00,76.0,72.0,29.70,South,169,5.0,5.0,87,0.00,,,0.00,,2013-06-01 09:21:00,
2013-06-01 04:33:00,76.0,72.0,29.70,South,183,3.0,5.0,88,0.00,,,0.00,,2013-06-01 09:33:00,
2013-06-01 04:42:00,76.0,72.0,29.70,South,183,3.0,5.0,88,0.00,,,0.00,,2013-06-01 09:42:00,
2013-06-01 04:53:00,76.0,73.0,29.70,SSW,194,5.0,5.0,90,0.00,,,0.00,,2013-06-01 09:53:00,
2013-06-01 05:02:00,75.0,73.0,29.70,South,176,5.0,5.0,92,0.00,,,0.00,,2013-06-01 10:02:00,
2013-06-01 05:13:00,75.0,73.0,29.70,South,176,5.0,5.0,92,0.00,,,0.00,,2013-06-01 10:13:00,
2013-06-01 05:22:00,75.0,73.0,29.71,SSW,194,2.0,4.0,93,0.00,,,0.00,,2013-06-01 10:22:00,
2013-06-01 05:33:00,75.0,73.0,29.71,South,191,6.0,6.0,95,0.00,,,0.00,,2013-06-01 10:33:00,
2013-06-01 05:42:00,75.0,73.0,29.71,SSW,210,6.0,6.0,95,0.00,,,0.00,,2013-06-01 10:42:00,
2013-06-01 05:52:00,75.0,73.0,29.71,SSW,210,6.0,6.0,95,0.00,,,0.00,,2013-06-01 10:52:00,
2013-06-01 06:02:00,75.0,73.0,29.71,SE,134,5.0,5.0,95,0.00,,,0.00,,2013-06-01 11:02:00,
2013-06-01 06:11:00,75.0,73.0,29.71,SE,134,5.0,5.0,95,0.00,,,0.00,,2013-06-01 11:11:00,
2013-06-01 06:21:00,74.0,72.0,29.71,South,169,7.0,7.0,95,0.00,,,0.00,,2013-06-01 11:21:00,
2013-06-01 06:32:00,74.0,72.0,29.71,SSW,197,5.0,5.0,95,0.00,,,0.00,,2013-06-01 11:32:00,
2013-06-01 06:42:00,75.0,73.0,29.71,SW,215,7.0,9.0,95,0.00,,,0.00,,2013-06-01 11:42:00,
2013-06-01 06:52:00,75.0,73.0,29.71,SW,215,7.0,9.0,95,0.00,,,0.00,,2013-06-01 11:52:00,
2013-06-01 07:01:00,74.0,72.0,29.72,SSW,212,4.0,4.0,95,0.00,,,0.00,,2013-06-01 12:01:00,
2013-06-01 07:12:00,74.0,72.0,29.72,SSW,212,4.0,4.0,95,0.00,,,0.00,,2013-06-01 12:12:00,
2013-06-01 07:21:00,75.0,73.0,29.74,SSW,193,3.0,3.0,94,0.00,,,0.00,,2013-06-01 12:21:00,
2013-06-01 07:32:00,78.0,75.0,29.74,SSW,204,6.0,10.0,90,0.00,,,0.00,,2013-06-01 12:32:00,
2013-06-01 07:41:00,80.0,75.0,29.75,SE,136,2.0,0.0,84,0.00,,,0.00,,2013-06-01 12:41:00,
2013-06-01 07:52:00,80.0,75.0,29.75,SE,136,2.0,0.0,84,0.00,,,0.00,,2013-06-01 12:52:00,
2013-06-01 08:01:00,81.0,75.0,29.78,East,84,2.0,2.0,82,0.00,,,0.00,,2013-06-01 13:01:00,
2013-06-01 08:11:00,81.0,75.0,29.78,East,84,2.0,2.0,82,0.00,,,0.00,,2013-06-01 13:11:00,
2013-06-01 08:22:00,81.0,75.0,29.77,SE,134,2.0,0.0,82,0.00,,,0.00,,2013-06-01 13:22:00,
2013-06-01 08:32:00,87.0,76.0,29.78,SSW,210,1.0,2.0,71,0.00,,,0.00,,2013-06-01 13:32:00,
2013-06-01 08:42:00,89.0,76.0,29.78,SW,228,5.0,6.0,65,0.00,,,0.00,,2013-06-01 13:42:00,
2013-06-01 08:52:00,89.0,76.0,29.78,SW,228,5.0,6.0,65,0.00,,,0.00,,2013-06-01 13:52:00,
2013-06-01 09:02:00,89.0,75.0,29.80,SW,222,3.0,5.0,63,0.00,,,0.00,,2013-06-01 14:02:00,
2013-06-01 09:11:00,89.0,75.0,29.80,SW,222,3.0,5.0,63,0.00,,,0.00,,2013-06-01 14:11:00,
2013-06-01 09:21:00,90.0,75.0,29.80,WSW,255,4.0,4.0,62,0.00,,,0.00,,2013-06-01 14:21:00,
2013-06-01 09:32:00,91.0,75.0,29.80,SE,146,6.0,6.0,60,0.00,,,0.00,,2013-06-01 14:32:00,
2013-06-01 09:42:00,91.0,75.0,29.80,SE,146,6.0,6.0,60,0.00,,,0.00,,2013-06-01 14:42:00,
2013-06-01 09:52:00,89.0,74.0,29.81,SW,222,7.0,8.0,61,0.00,,,0.00,,2013-06-01 14:52:00,
2013-06-01 10:01:00,93.0,75.0,29.81,South,181,5.0,5.0,56,0.00,,,0.00,,2013-06-01 15:01:00,
2013-06-01 10:11:00,93.0,75.0,29.81,South,181,5.0,5.0,56,0.00,,,0.00,,2013-06-01 15:11:00,
2013-06-01 10:21:00,93.0,74.0,29.82,SW,215,5.0,6.0,55,0.00,,,0.00,,2013-06-01 15:21:00,
2013-06-01 10:33:00,91.0,73.0,29.83,WSW,250,6.0,7.0,56,0.00,,,0.00,,2013-06-01 15:33:00,
2013-06-01 10:43:00,91.0,73.0,29.83,WSW,250,6.0,7.0,56,0.00,,,0.00,,2013-06-01 15:43:00,
2013-06-01 10:53:00,89.0,73.0,29.83,WNW,290,2.0,4.0,60,0.00,,,0.00,,2013-06-01 15:53:00,
2013-06-01 11:03:00,87.0,72.0,29.83,NNW,329,1.0,4.0,62,0.00,,,0.00,,2013-06-01 16:03:00,
2013-06-01 11:12:00,87.0,72.0,29.83,NNW,329,1.0,4.0,62,0.00,,,0.00,,2013-06-01 16:12:00,
2013-06-01 11:23:00,87.0,73.0,29.83,WNW,297,4.0,4.0,63,0.00,,,0.00,,2013-06-01 16:23:00,
2013-06-01 11:33:00,87.0,72.0,29.83,West,269,0.0,4.0,62,0.00,,,0.00,,2013-06-01 16:33:00,
2013-06-01 11:42:00,90.0,74.0,29.83,SSE,160,4.0,4.0,59,0.00,,,0.00,,2013-06-01 16:42:00,
2013-06-01 11:52:00,90.0,74.0,29.83,SSE,160,4.0,4.0,59,0.00,,,0.00,,2013-06-01 16:52:00,
2013-06-01 12:02:00,96.0,74.0,29.83,West,280,5.0,5.0,49,0.00,,,0.00,,2013-06-01 17:02:00,
2013-06-01 12:11:00,96.0,74.0,29.83,West,280,5.0,5.0,49,0.00,,,0.00,,2013-06-01 17:11:00,
2013-06-01 12:22:00,97.0,73.0,29.83,WSW,250,6.0,6.0,46,0.00,,,0.00,,2013-06-01 17:22:00,
2013-06-01 12:32:00,97.0,72.0,29.83,NW,316,0.0,0.0,45,0.00,,,0.00,,2013-06-01 17:32:00,
2013-06-01 12:42:00,93.0,72.0,29.83,West,281,5.0,5.0,50,0.00,,,0.00,,2013-06-01 17:42:00,
2013-06-01 12:52:00,93.0,72.0,29.83,West,281,5.0,5.0,50,0.00,,,0.00,,2013-06-01 17:52:00,
2013-06-01 13:01:00,96.0,71.0,29.83,South,174,2.0,5.0,45,0.00,,,0.00,,2013-06-01 18:01:00,
2013-06-01 13:12:00,96.0,71.0,29.83,South,174,2.0,5.0,45,0.00,,,0.00,,2013-06-01 18:12:00,
2013-06-01 13:21:00,99.0,73.0,29.83,SE,146,4.0,4.0,44,0.00,,,0.00,,2013-06-01 18:21:00,
2013-06-01 13:32:00,101.0,71.0,29.83,East,91,0.0,0.0,38,0.00,,,0.00,,2013-06-01 18:32:00,
2013-06-01 13:42:00,101.0,71.0,29.83,East,91,0.0,0.0,38,0.00,,,0.00,,2013-06-01 18:42:00,
2013-06-01 13:52:00,96.0,71.0,29.83,NW,319,1.0,0.0,44,0.00,,,0.00,,2013-06-01 18:52:00,
2013-06-01 14:01:00,94.0,70.0,29.83,North,8,6.0,6.0,46,0.00,,,0.00,,2013-06-01 19:01:00,
2013-06-01 14:11:00,97.0,69.0,29.82,NNE,14,1.0,4.0,41,0.00,,,0.00,,2013-06-01 19:11:00,
2013-06-01 14:21:00,97.0,69.0,29.82,NNE,14,1.0,4.0,41,0.00,,,0.00,,2013-06-01 19:21:00,
2013-06-01 14:32:00,94.0,71.0,29.82,ESE,114,4.0,6.0,47,0.00,,,0.00,,2013-06-01 19:32:00,
2013-06-01 14:41:00,99.0,70.0,29.82,NE,48,3.0,7.0,40,0.00,,,0.00,,2013-06-01 19:41:00,
2013-06-01 14:52:00,99.0,70.0,29.82,NE,48,3.0,7.0,40,0.00,,,0.00,,2013-06-01 19:52:00,
2013-06-01 15:01:00,99.0,70.0,29.82,NW,312,10.0,10.0,40,0.00,,,0.00,,2013-06-01 20:01:00,
2013-06-01 15:12:00,99.0,70.0,29.82,NW,312,10.0,10.0,40,0.00,,,0.00,,2013-06-01 20:12:00,
2013-06-01 15:21:00,90.0,70.0,29.81,North,4,13.0,13.0,52,0.00,,,0.00,,2013-06-01 20:21:00,
2013-06-01 15:32:00,91.0,70.0,29.81,NNW,335,9.0,10.0,51,0.00,,,0.00,,2013-06-01 20:32:00,
2013-06-01 15:41:00,93.0,69.0,29.81,NE,41,11.0,12.0,46,0.00,,,0.00,,2013-06-01 20:41:00,
2013-06-01 15:52:00,93.0,69.0,29.81,NE,41,11.0,12.0,46,0.00,,,0.00,,2013-06-01 20:52:00,
2013-06-01 16:01:00,92.0,69.0,29.81,NNE,23,10.0,10.0,47,0.00,,,0.00,,2013-06-01 21:01:00,
2013-06-01 16:11:00,90.0,68.0,29.82,North,7,11.0,13.0,49,0.00,,,0.00,,2013-06-01 21:11:00,
2013-06-01 16:21:00,90.0,68.0,29.82,North,7,11.0,13.0,49,0.00,,,0.00,,2013-06-01 21:21:00,
2013-06-01 16:33:00,92.0,69.0,29.82,NNW,330,11.0,11.0,47,0.00,,,0.00,,2013-06-01 21:33:00,
2013-06-01 16:42:00,92.0,69.0,29.82,NNW,330,11.0,11.0,47,0.00,,,0.00,,2013-06-01 21:42:00,
2013-06-01 16:53:00,92.0,68.0,29.82,North,0,9.0,10.0,46,0.00,,,0.00,,2013-06-01 21:53:00,
2013-06-01 17:03:00,90.0,68.0,29.81,NNE,15,11.0,11.0,48,0.00,,,0.00,,2013-06-01 22:03:00,
2013-06-01 17:12:00,91.0,67.0,29.81,NE,48,13.0,13.0,46,0.00,,,0.00,,2013-06-01 22:12:00,
2013-06-01 17:23:00,91.0,67.0,29.81,NE,48,13.0,13.0,46,0.00,,,0.00,,2013-06-01 22:23:00,
2013-06-01 17:33:00,89.0,68.0,29.81,NNW,340,8.0,8.0,50,0.00,,,0.00,,2013-06-01 22:33:00,
2013-06-01 17:42:00,89.0,68.0,29.81,NNE,18,8.0,8.0,51,0.00,,,0.00,,2013-06-01 22:42:00,
2013-06-01 17:53:00,89.0,68.0,29.81,NNE,18,8.0,8.0,51,0.00,,,0.00,,2013-06-01 22:53:00,
2013-06-01 18:02:00,89.0,68.0,29.81,North,11,10.0,10.0,50,0.00,,,0.00,,2013-06-01 23:02:00,
2013-06-01 18:11:00,89.0,68.0,29.80,NE,45,9.0,9.0,50,0.00,,,0.00,,2013-06-01 23:11:00,
2013-06-01 18:21:00,89.0,68.0,29.80,NE,45,9.0,9.0,50,0.00,,,0.00,,2013-06-01 23:21:00,
2013-06-01 18:32:00,89.0,68.0,29.81,NNE,32,9.0,11.0,51,0.00,,,0.00,,2013-06-01 23:32:00,
2013-06-01 18:42:00,89.0,68.0,29.81,NNE,32,9.0,11.0,51,0.00,,,0.00,,2013-06-01 23:42:00,
2013-06-01 18:52:00,89.0,68.0,29.80,NNE,13,12.0,12.0,50,0.00,,,0.00,,2013-06-01 23:52:00,
2013-06-01 19:02:00,89.0,68.0,29.81,NE,49,7.0,9.0,50,0.00,,,0.00,,2013-06-02 00:02:00,
2013-06-01 19:11:00,89.0,68.0,29.81,NE,49,7.0,9.0,50,0.00,,,0.00,,2013-06-02 00:11:00,
2013-06-01 19:21:00,88.0,67.0,29.82,NNE,21,9.0,16.0,50,0.00,,,0.00,,2013-06-02 00:21:00,
2013-06-01 19:32:00,88.0,66.0,29.82,NNE,31,9.0,10.0,49,0.00,,,0.00,,2013-06-02 00:32:00,
2013-06-01 19:41:00,88.0,66.0,29.82,NNE,31,9.0,10.0,49,0.00,,,0.00,,2013-06-02 00:41:00,
2013-06-01 19:52:00,87.0,65.0,29.83,NNE,17,9.0,10.0,49,0.00,,,0.00,,2013-06-02 00:52:00,
2013-06-01 20:01:00,86.0,65.0,29.84,NNW,342,7.0,11.0,49,0.00,,,0.00,,2013-06-02 01:01:00,
2013-06-01 20:11:00,86.0,65.0,29.84,NNW,342,7.0,11.0,49,0.00,,,0.00,,2013-06-02 01:11:00,
2013-06-01 20:21:00,85.0,64.0,29.85,North,8,9.0,10.0,50,0.00,,,0.00,,2013-06-02 01:21:00,
2013-06-01 20:32:00,84.0,64.0,29.85,NNE,18,9.0,10.0,52,0.00,,,0.00,,2013-06-02 01:32:00,
2013-06-01 20:41:00,83.0,65.0,29.86,North,10,8.0,8.0,54,0.00,,,0.00,,2013-06-02 01:41:00,
2013-06-01 20:52:00,83.0,65.0,29.86,North,10,8.0,8.0,54,0.00,,,0.00,,2013-06-02 01:52:00,
2013-06-01 21:01:00,83.0,66.0,29.87,North,7,7.0,7.0,56,0.00,,,0.00,,2013-06-02 02:01:00,
2013-06-01 21:12:00,83.0,66.0,29.87,North,7,7.0,7.0,56,0.00,,,0.00,,2013-06-02 02:12:00,
2013-06-01 21:21:00,82.0,65.0,29.88,North,7,6.0,6.0,56,0.00,,,0.00,,2013-06-02 02:21:00,
2013-06-01 21:32:00,82.0,65.0,29.89,NNE,30,5.0,5.0,56,0.00,,,0.00,,2013-06-02 02:32:00,
2013-06-01 21:41:00,82.0,65.0,29.89,NNE,30,5.0,5.0,56,0.00,,,0.00,,2013-06-02 02:41:00,
2013-06-01 21:52:00,81.0,64.0,29.90,NE,55,6.0,6.0,57,0.00,,,0.00,,2013-06-02 02:52:00,
2013-06-01 22:02:00,81.0,64.0,29.90,North,10,5.0,5.0,56,0.00,,,0.00,,2013-06-02 03:02:00,
2013-06-01 22:11:00,81.0,64.0,29.90,North,10,5.0,5.0,56,0.00,,,0.00,,2013-06-02 03:11:00,
2013-06-01 22:21:00,81.0,63.0,29.91,North,11,10.0,10.0,55,0.00,,,0.00,,2013-06-02 03:21:00,
2013-06-01 22:33:00,80.0,63.0,29.91,NE,45,7.0,8.0,56,0.00,,,0.00,,2013-06-02 03:33:00,
2013-06-01 22:43:00,80.0,63.0,29.91,NE,45,7.0,8.0,56,0.00,,,0.00,,2013-06-02 03:43:00,
2013-06-01 22:53:00,80.0,62.0,29.92,NNE,30,7.0,8.0,55,0.00,,,0.00,,2013-06-02 03:53:00,
2013-06-01 23:02:00,79.0,62.0,29.93,NE,34,5.0,5.0,56,0.00,,,0.00,,2013-06-02 04:02:00,
2013-06-01 23:13:00,79.0,62.0,29.93,NE,34,5.0,5.0,56,0.00,,,0.00,,2013-06-02 04:13:00,
2013-06-01 23:23:00,79.0,62.0,29.94,NNE,32,5.0,5.0,56,0.00,,,0.00,,2013-06-02 04:23:00,
2013-06-01 23:33:00,78.0,62.0,29.95,NE,41,5.0,5.0,57,0.00,,,0.00,,2013-06-02 04:33:00,
2013-06-01 23:42:00,78.0,62.0,29.95,NE,41,5.0,5.0,57,0.00,,,0.00,,2013-06-02 04:42:00,
2013-06-01 23:53:00,78.0,62.0,29.95,NE,52,6.0,6.0,57,0.00,,,0.00,,2013-06-02 04:53:00,